sensor_id;sensor_type;location;lat;lon;timestamp;pressure;altitude;pressure_sealevel;temperature
19568;BMP280;9930;49.240;8.548;2022-08-27T00:01:43;100264.41;;;27.47
19568;BMP280;9930;49.240;8.548;2022-08-27T00:04:09;100270.41;;;27.50
19568;BMP280;9930;49.240;8.548;2022-08-27T00:06:37;100262.75;;;27.44
19568;BMP280;9930;49.240;8.548;2022-08-27T00:09:05;100262.75;;;27.44
19568;BMP280;9930;49.240;8.548;2022-08-27T00:11:32;100253.41;;;27.37
19568;BMP280;9930;49.240;8.548;2022-08-27T00:13:57;100253.50;;;27.34
19568;BMP280;9930;49.240;8.548;2022-08-27T00:16:23;100261.25;;;27.37
19568;BMP280;9930;49.240;8.548;2022-08-27T00:18:52;100256.06;;;27.35
19568;BMP280;9930;49.240;8.548;2022-08-27T00:21:21;100242.53;;;27.23
19568;BMP280;9930;49.240;8.548;2022-08-27T00:23:47;100244.25;;;27.24
19568;BMP280;9930;49.240;8.548;2022-08-27T00:26:17;100250.22;;;27.27
19568;BMP280;9930;49.240;8.548;2022-08-27T00:28:46;100245.91;;;27.26
19568;BMP280;9930;49.240;8.548;2022-08-27T00:31:20;100240.97;;;27.17
19568;BMP280;9930;49.240;8.548;2022-08-27T00:33:50;100246.97;;;27.21
19568;BMP280;9930;49.240;8.548;2022-08-27T00:36:20;100235.88;;;27.13
19568;BMP280;9930;49.240;8.548;2022-08-27T00:38:47;100229.00;;;27.10
19568;BMP280;9930;49.240;8.548;2022-08-27T00:41:22;100243.66;;;27.16
19568;BMP280;9930;49.240;8.548;2022-08-27T00:43:56;100224.66;;;27.09
19568;BMP280;9930;49.240;8.548;2022-08-27T00:49:06;100233.38;;;27.09
19568;BMP280;9930;49.240;8.548;2022-08-27T00:51:37;100224.88;;;27.03
19568;BMP280;9930;49.240;8.548;2022-08-27T00:54:04;100234.34;;;27.07
19568;BMP280;9930;49.240;8.548;2022-08-27T00:56:39;100223.97;;;27.04
19568;BMP280;9930;49.240;8.548;2022-08-27T00:59:13;100228.28;;;27.05
19568;BMP280;9930;49.240;8.548;2022-08-27T01:01:44;100228.34;;;27.03
19568;BMP280;9930;49.240;8.548;2022-08-27T01:04:31;100220.72;;;26.96
19568;BMP280;9930;49.240;8.548;2022-08-27T01:07:00;100225.88;;;26.99
19568;BMP280;9930;49.240;8.548;2022-08-27T01:09:26;100223.34;;;26.96
19568;BMP280;9930;49.240;8.548;2022-08-27T01:11:56;100217.28;;;26.94
19568;BMP280;9930;49.240;8.548;2022-08-27T01:14:25;100211.44;;;26.86
19568;BMP280;9930;49.240;8.548;2022-08-27T01:16:56;100208.06;;;26.82
19568;BMP280;9930;49.240;8.548;2022-08-27T01:19:45;100214.16;;;26.83
19568;BMP280;9930;49.240;8.548;2022-08-27T01:22:48;100210.78;;;26.79
19568;BMP280;9930;49.240;8.548;2022-08-27T01:25:20;100207.31;;;26.78
19568;BMP280;9930;49.240;8.548;2022-08-27T01:27:51;100196.09;;;26.75
19568;BMP280;9930;49.240;8.548;2022-08-27T01:30:24;100206.41;;;26.79
19568;BMP280;9930;49.240;8.548;2022-08-27T01:32:51;100204.75;;;26.77
19568;BMP280;9930;49.240;8.548;2022-08-27T01:35:24;100196.19;;;26.72
19568;BMP280;9930;49.240;8.548;2022-08-27T01:37:56;100200.47;;;26.74
19568;BMP280;9930;49.240;8.548;2022-08-27T01:40:23;100196.25;;;26.70
19568;BMP280;9930;49.240;8.548;2022-08-27T01:42:53;100201.31;;;26.75
19568;BMP280;9930;49.240;8.548;2022-08-27T01:45:27;100188.41;;;26.70
19568;BMP280;9930;49.240;8.548;2022-08-27T01:47:54;100200.47;;;26.74
19568;BMP280;9930;49.240;8.548;2022-08-27T01:50:29;100198.84;;;26.70
19568;BMP280;9930;49.240;8.548;2022-08-27T01:53:03;100208.28;;;26.76
19568;BMP280;9930;49.240;8.548;2022-08-27T01:55:29;100198.00;;;26.70
19568;BMP280;9930;49.240;8.548;2022-08-27T01:57:55;100208.41;;;26.71
19568;BMP280;9930;49.240;8.548;2022-08-27T02:00:29;100197.34;;;26.63
19568;BMP280;9930;49.240;8.548;2022-08-27T02:02:58;100206.91;;;26.64
19568;BMP280;9930;49.240;8.548;2022-08-27T02:05:26;100198.19;;;26.64
19568;BMP280;9930;49.240;8.548;2022-08-27T02:07:54;100202.47;;;26.66
19568;BMP280;9930;49.240;8.548;2022-08-27T02:10:37;100195.50;;;26.67
19568;BMP280;9930;49.240;8.548;2022-08-27T02:13:03;100199.00;;;26.66
19568;BMP280;9930;49.240;8.548;2022-08-27T02:15:33;100199.09;;;26.63
19568;BMP280;9930;49.240;8.548;2022-08-27T02:18:00;100194.81;;;26.60
19568;BMP280;9930;49.240;8.548;2022-08-27T02:20:26;100202.69;;;26.60
19568;BMP280;9930;49.240;8.548;2022-08-27T02:22:54;100199.25;;;26.58
19568;BMP280;9930;49.240;8.548;2022-08-27T02:25:23;100191.50;;;26.55
19568;BMP280;9930;49.240;8.548;2022-08-27T02:27:50;100177.75;;;26.49
19568;BMP280;9930;49.240;8.548;2022-08-27T02:30:23;100187.28;;;26.51
19568;BMP280;9930;49.240;8.548;2022-08-27T02:32:50;100190.75;;;26.52
19568;BMP280;9930;49.240;8.548;2022-08-27T02:35:22;100189.03;;;26.51
19568;BMP280;9930;49.240;8.548;2022-08-27T02:37:53;100194.31;;;26.49
19568;BMP280;9930;49.240;8.548;2022-08-27T02:40:22;100188.38;;;26.44
19568;BMP280;9930;49.240;8.548;2022-08-27T02:42:53;100198.72;;;26.47
19568;BMP280;9930;49.240;8.548;2022-08-27T02:45:21;100180.75;;;26.36
19568;BMP280;9930;49.240;8.548;2022-08-27T02:47:50;100191.94;;;26.41
19568;BMP280;9930;49.240;8.548;2022-08-27T02:50:23;100201.44;;;26.44
19568;BMP280;9930;49.240;8.548;2022-08-27T02:52:51;100194.63;;;26.38
19568;BMP280;9930;49.240;8.548;2022-08-27T02:55:23;100213.66;;;26.43
19568;BMP280;9930;49.240;8.548;2022-08-27T02:57:55;100204.97;;;26.43
19568;BMP280;9930;49.240;8.548;2022-08-27T03:00:23;100205.00;;;26.41
19568;BMP280;9930;49.240;8.548;2022-08-27T03:02:51;100203.34;;;26.39
19568;BMP280;9930;49.240;8.548;2022-08-27T03:05:23;100205.97;;;26.39
19568;BMP280;9930;49.240;8.548;2022-08-27T03:07:52;100209.44;;;26.39
19568;BMP280;9930;49.240;8.548;2022-08-27T03:10:23;100205.16;;;26.37
19568;BMP280;9930;49.240;8.548;2022-08-27T03:12:49;100199.09;;;26.35
19568;BMP280;9930;49.240;8.548;2022-08-27T03:15:19;100201.78;;;26.33
19568;BMP280;9930;49.240;8.548;2022-08-27T03:17:46;100190.50;;;26.30
19568;BMP280;9930;49.240;8.548;2022-08-27T03:20:31;100194.94;;;26.28
19568;BMP280;9930;49.240;8.548;2022-08-27T03:22:58;100193.19;;;26.28
19568;BMP280;9930;49.240;8.548;2022-08-27T03:25:25;100200.91;;;26.33
19568;BMP280;9930;49.240;8.548;2022-08-27T03:27:52;100201.03;;;26.28
19568;BMP280;9930;49.240;8.548;2022-08-27T03:30:22;100212.22;;;26.33
19568;BMP280;9930;49.240;8.548;2022-08-27T03:32:53;100210.56;;;26.29
19568;BMP280;9930;49.240;8.548;2022-08-27T03:35:25;100218.38;;;26.32
19568;BMP280;9930;49.240;8.548;2022-08-27T03:37:50;100206.34;;;26.25
19568;BMP280;9930;49.240;8.548;2022-08-27T03:40:21;100204.59;;;26.26
19568;BMP280;9930;49.240;8.548;2022-08-27T03:42:50;100215.75;;;26.31
19568;BMP280;9930;49.240;8.548;2022-08-27T03:45:22;100215.75;;;26.31
19568;BMP280;9930;49.240;8.548;2022-08-27T03:47:50;100203.63;;;26.28
19568;BMP280;9930;49.240;8.548;2022-08-27T03:50:23;100203.63;;;26.28
19568;BMP280;9930;49.240;8.548;2022-08-27T03:52:52;100203.63;;;26.28
19568;BMP280;9930;49.240;8.548;2022-08-27T03:55:21;100205.50;;;26.25
19568;BMP280;9930;49.240;8.548;2022-08-27T03:57:47;100208.91;;;26.27
19568;BMP280;9930;49.240;8.548;2022-08-27T04:00:14;100209.72;;;26.29
19568;BMP280;9930;49.240;8.548;2022-08-27T04:02:41;100206.28;;;26.27
19568;BMP280;9930;49.240;8.548;2022-08-27T04:05:11;100207.09;;;26.29
19568;BMP280;9930;49.240;8.548;2022-08-27T04:07:43;100212.34;;;26.29
19568;BMP280;9930;49.240;8.548;2022-08-27T04:10:10;100207.16;;;26.27
19568;BMP280;9930;49.240;8.548;2022-08-27T04:12:38;100198.50;;;26.25
19568;BMP280;9930;49.240;8.548;2022-08-27T04:15:05;100208.81;;;26.30
19568;BMP280;9930;49.240;8.548;2022-08-27T04:17:31;100213.19;;;26.29
19568;BMP280;9930;49.240;8.548;2022-08-27T04:19:57;100214.94;;;26.29
19568;BMP280;9930;49.240;8.548;2022-08-27T04:22:28;100214.19;;;26.25
19568;BMP280;9930;49.240;8.548;2022-08-27T04:24:54;100216.81;;;26.25
19568;BMP280;9930;49.240;8.548;2022-08-27T04:27:23;100205.63;;;26.20
19568;BMP280;9930;49.240;8.548;2022-08-27T04:29:59;100225.47;;;26.27
19568;BMP280;9930;49.240;8.548;2022-08-27T04:32:27;100214.31;;;26.21
19568;BMP280;9930;49.240;8.548;2022-08-27T04:34:57;100212.56;;;26.21
19568;BMP280;9930;49.240;8.548;2022-08-27T04:37:30;100214.38;;;26.19
19568;BMP280;9930;49.240;8.548;2022-08-27T04:39:58;100220.47;;;26.20
19568;BMP280;9930;49.240;8.548;2022-08-27T04:42:26;100230.81;;;26.23
19568;BMP280;9930;49.240;8.548;2022-08-27T04:44:55;100228.19;;;26.23
19568;BMP280;9930;49.240;8.548;2022-08-27T04:47:23;100226.63;;;26.17
19568;BMP280;9930;49.240;8.548;2022-08-27T04:49:53;100227.41;;;26.21
19568;BMP280;9930;49.240;8.548;2022-08-27T04:52:22;100236.06;;;26.23
19568;BMP280;9930;49.240;8.548;2022-08-27T04:54:51;100232.56;;;26.22
19568;BMP280;9930;49.240;8.548;2022-08-27T04:57:20;100233.47;;;26.21
19568;BMP280;9930;49.240;8.548;2022-08-27T04:59:50;100229.09;;;26.22
19568;BMP280;9930;49.240;8.548;2022-08-27T05:02:20;100225.59;;;26.23
19568;BMP280;9930;49.240;8.548;2022-08-27T05:04:50;100226.59;;;26.19
19568;BMP280;9930;49.240;8.548;2022-08-27T05:07:22;100225.53;;;26.24
19568;BMP280;9930;49.240;8.548;2022-08-27T05:09:51;100229.91;;;26.24
19568;BMP280;9930;49.240;8.548;2022-08-27T05:12:20;100229.06;;;26.23
19568;BMP280;9930;49.240;8.548;2022-08-27T05:14:49;100227.41;;;26.21
19568;BMP280;9930;49.240;8.548;2022-08-27T05:17:15;100227.41;;;26.21
19568;BMP280;9930;49.240;8.548;2022-08-27T05:19:43;100220.59;;;26.15
19568;BMP280;9930;49.240;8.548;2022-08-27T05:22:09;100217.88;;;26.18
19568;BMP280;9930;49.240;8.548;2022-08-27T05:24:34;100219.63;;;26.18
19568;BMP280;9930;49.240;8.548;2022-08-27T05:27:02;100212.66;;;26.18
19568;BMP280;9930;49.240;8.548;2022-08-27T05:29:28;100217.88;;;26.18
19568;BMP280;9930;49.240;8.548;2022-08-27T05:31:58;100217.84;;;26.20
19568;BMP280;9930;49.240;8.548;2022-08-27T05:34:26;100222.13;;;26.22
19568;BMP280;9930;49.240;8.548;2022-08-27T05:36:52;100218.66;;;26.22
19568;BMP280;9930;49.240;8.548;2022-08-27T05:39:18;100202.38;;;26.12
19568;BMP280;9930;49.240;8.548;2022-08-27T05:41:44;100204.00;;;26.16
19568;BMP280;9930;49.240;8.548;2022-08-27T05:44:10;100212.66;;;26.18
19568;BMP280;9930;49.240;8.548;2022-08-27T05:46:39;100217.75;;;26.23
19568;BMP280;9930;49.240;8.548;2022-08-27T05:49:05;100219.41;;;26.25
19568;BMP280;9930;49.240;8.548;2022-08-27T05:51:37;100220.13;;;26.30
19568;BMP280;9930;49.240;8.548;2022-08-27T05:54:07;100211.53;;;26.27
19568;BMP280;9930;49.240;8.548;2022-08-27T05:56:37;100215.81;;;26.29
19568;BMP280;9930;49.240;8.548;2022-08-27T05:59:03;100210.63;;;26.28
19568;BMP280;9930;49.240;8.548;2022-08-27T06:01:53;100226.13;;;26.35
19568;BMP280;9930;49.240;8.548;2022-08-27T06:04:24;100226.97;;;26.36
19568;BMP280;9930;49.240;8.548;2022-08-27T06:06:51;100222.72;;;26.32
19568;BMP280;9930;49.240;8.548;2022-08-27T06:09:24;100225.31;;;26.33
19568;BMP280;9930;49.240;8.548;2022-08-27T06:11:56;100226.97;;;26.36
19568;BMP280;9930;49.240;8.548;2022-08-27T06:14:22;100223.53;;;26.34
19568;BMP280;9930;49.240;8.548;2022-08-27T06:16:51;100212.28;;;26.30
19568;BMP280;9930;49.240;8.548;2022-08-27T06:19:22;100215.69;;;26.34
19568;BMP280;9930;49.240;8.548;2022-08-27T06:21:50;100225.97;;;26.40
19568;BMP280;9930;49.240;8.548;2022-08-27T06:24:20;100225.06;;;26.41
19568;BMP280;9930;49.240;8.548;2022-08-27T06:26:50;100231.16;;;26.41
19568;BMP280;9930;49.240;8.548;2022-08-27T06:29:19;100233.72;;;26.43
19568;BMP280;9930;49.240;8.548;2022-08-27T06:31:45;100227.63;;;26.42
19568;BMP280;9930;49.240;8.548;2022-08-27T06:34:11;100229.34;;;26.43
19568;BMP280;9930;49.240;8.548;2022-08-27T06:36:41;100235.44;;;26.44
19568;BMP280;9930;49.240;8.548;2022-08-27T06:39:10;100231.06;;;26.44
19568;BMP280;9930;49.240;8.548;2022-08-27T06:41:42;100223.41;;;26.38
19568;BMP280;9930;49.240;8.548;2022-08-27T06:44:08;100226.97;;;26.36
19568;BMP280;9930;49.240;8.548;2022-08-27T06:46:38;100233.91;;;26.37
19568;BMP280;9930;49.240;8.548;2022-08-27T06:49:08;100234.84;;;26.34
19568;BMP280;9930;49.240;8.548;2022-08-27T06:51:37;100242.63;;;26.37
19568;BMP280;9930;49.240;8.548;2022-08-27T06:54:09;100234.91;;;26.31
19568;BMP280;9930;49.240;8.548;2022-08-27T06:56:38;100240.91;;;26.36
19568;BMP280;9930;49.240;8.548;2022-08-27T06:59:09;100250.38;;;26.40
19568;BMP280;9930;49.240;8.548;2022-08-27T07:01:40;100246.03;;;26.39
19568;BMP280;9930;49.240;8.548;2022-08-27T07:04:10;100241.72;;;26.38
19568;BMP280;9930;49.240;8.548;2022-08-27T07:06:39;100246.84;;;26.41
19568;BMP280;9930;49.240;8.548;2022-08-27T07:09:06;100251.13;;;26.44
19568;BMP280;9930;49.240;8.548;2022-08-27T07:11:36;100256.38;;;26.44
19568;BMP280;9930;49.240;8.548;2022-08-27T07:14:06;100248.47;;;26.45
19568;BMP280;9930;49.240;8.548;2022-08-27T07:16:37;100244.25;;;26.41
19568;BMP280;9930;49.240;8.548;2022-08-27T07:19:05;100255.41;;;26.46
19568;BMP280;9930;49.240;8.548;2022-08-27T07:21:34;100258.94;;;26.45
19568;BMP280;9930;49.240;8.548;2022-08-27T07:24:02;100252.00;;;26.44
19568;BMP280;9930;49.240;8.548;2022-08-27T07:26:35;100254.50;;;26.48
19568;BMP280;9930;49.240;8.548;2022-08-27T07:29:09;100258.69;;;26.53
19568;BMP280;9930;49.240;8.548;2022-08-27T07:31:36;100258.59;;;26.56
19568;BMP280;9930;49.240;8.548;2022-08-27T07:34:03;100258.56;;;26.58
19568;BMP280;9930;49.240;8.548;2022-08-27T07:36:34;100264.41;;;26.66
19568;BMP280;9930;49.240;8.548;2022-08-27T07:39:00;100255.81;;;26.62
19568;BMP280;9930;49.240;8.548;2022-08-27T07:41:26;100254.75;;;26.68
19568;BMP280;9930;49.240;8.548;2022-08-27T07:43:54;100271.84;;;26.79
19568;BMP280;9930;49.240;8.548;2022-08-27T07:46:39;100261.47;;;26.76
19568;BMP280;9930;49.240;8.548;2022-08-27T07:49:04;100277.84;;;26.83
19568;BMP280;9930;49.240;8.548;2022-08-27T07:51:30;100264.78;;;26.82
19568;BMP280;9930;49.240;8.548;2022-08-27T07:54:01;100269.88;;;26.86
19568;BMP280;9930;49.240;8.548;2022-08-27T07:56:27;100282.69;;;26.95
19568;BMP280;9930;49.240;8.548;2022-08-27T07:58:53;100285.22;;;26.98
19568;BMP280;9930;49.240;8.548;2022-08-27T08:01:21;100274.00;;;26.93
19568;BMP280;9930;49.240;8.548;2022-08-27T08:03:51;100286.03;;;27.00
19568;BMP280;9930;49.240;8.548;2022-08-27T08:06:20;100292.84;;;27.06
19568;BMP280;9930;49.240;8.548;2022-08-27T08:08:50;100290.97;;;27.09
19568;BMP280;9930;49.240;8.548;2022-08-27T08:11:21;100284.97;;;27.06
19568;BMP280;9930;49.240;8.548;2022-08-27T08:13:49;100289.22;;;27.10
19568;BMP280;9930;49.240;8.548;2022-08-27T08:16:17;100291.72;;;27.13
19568;BMP280;9930;49.240;8.548;2022-08-27T08:18:45;100295.75;;;27.23
19568;BMP280;9930;49.240;8.548;2022-08-27T08:21:13;100295.63;;;27.28
19568;BMP280;9930;49.240;8.548;2022-08-27T08:23:41;100298.88;;;27.34
19568;BMP280;9930;49.240;8.548;2022-08-27T08:26:09;100296.00;;;27.42
19568;BMP280;9930;49.240;8.548;2022-08-27T08:28:35;100288.09;;;27.43
19568;BMP280;9930;49.240;8.548;2022-08-27T08:31:02;100287.78;;;27.53
19568;BMP280;9930;49.240;8.548;2022-08-27T08:33:31;100298.78;;;27.64
19568;BMP280;9930;49.240;8.548;2022-08-27T08:36:08;100300.28;;;27.71
19568;BMP280;9930;49.240;8.548;2022-08-27T08:38:35;100291.50;;;27.72
19568;BMP280;9930;49.240;8.548;2022-08-27T08:41:03;100296.69;;;27.73
19568;BMP280;9930;49.240;8.548;2022-08-27T08:43:42;100299.06;;;27.81
19568;BMP280;9930;49.240;8.548;2022-08-27T08:48:57;100295.75;;;27.76
19568;BMP280;9930;49.240;8.548;2022-08-27T08:51:35;100300.81;;;27.81
19568;BMP280;9930;49.240;8.548;2022-08-27T08:54:09;100296.53;;;27.78
19568;BMP280;9930;49.240;8.548;2022-08-27T08:57:02;100298.00;;;27.87
19568;BMP280;9930;49.240;8.548;2022-08-27T08:59:33;100300.72;;;27.84
19568;BMP280;9930;49.240;8.548;2022-08-27T09:02:07;100305.63;;;27.93
19568;BMP280;9930;49.240;8.548;2022-08-27T09:04:35;100308.09;;;27.97
19568;BMP280;9930;49.240;8.548;2022-08-27T09:07:23;100305.19;;;28.05
19568;BMP280;9930;49.240;8.548;2022-08-27T09:10:13;100309.19;;;28.15
19568;BMP280;9930;49.240;8.548;2022-08-27T09:12:44;100310.66;;;28.24
19568;BMP280;9930;49.240;8.548;2022-08-27T09:15:18;100312.13;;;28.31
19568;BMP280;9930;49.240;8.548;2022-08-27T09:17:47;100299.13;;;28.28
19568;BMP280;9930;49.240;8.548;2022-08-27T09:20:20;100312.75;;;28.37
19568;BMP280;9930;49.240;8.548;2022-08-27T09:25:36;100320.69;;;28.36
19568;BMP280;9930;49.240;8.548;2022-08-27T09:28:10;100317.16;;;28.37
19568;BMP280;9930;49.240;8.548;2022-08-27T09:31:05;100312.88;;;28.34
19568;BMP280;9930;49.240;8.548;2022-08-27T09:33:31;100300.50;;;28.38
19568;BMP280;9930;49.240;8.548;2022-08-27T09:36:03;100317.50;;;28.51
19568;BMP280;9930;49.240;8.548;2022-08-27T09:38:34;100316.34;;;28.58
19568;BMP280;9930;49.240;8.548;2022-08-27T09:41:16;100318.56;;;28.69
19568;BMP280;9930;49.240;8.548;2022-08-27T09:44:16;100315.81;;;28.72
19568;BMP280;9930;49.240;8.548;2022-08-27T09:47:01;100313.00;;;28.77
19568;BMP280;9930;49.240;8.548;2022-08-27T09:49:30;100315.53;;;28.80
19568;BMP280;9930;49.240;8.548;2022-08-27T09:51:58;100304.22;;;28.78
19568;BMP280;9930;49.240;8.548;2022-08-27T09:54:45;100306.63;;;28.84
19568;BMP280;9930;49.240;8.548;2022-08-27T09:57:28;100300.41;;;28.86
19568;BMP280;9930;49.240;8.548;2022-08-27T09:59:55;100298.41;;;28.93
19568;BMP280;9930;49.240;8.548;2022-08-27T10:02:24;100288.94;;;28.89
19568;BMP280;9930;49.240;8.548;2022-08-27T10:05:12;100302.56;;;28.98
19568;BMP280;9930;49.240;8.548;2022-08-27T10:07:59;100292.09;;;28.97
19568;BMP280;9930;49.240;8.548;2022-08-27T10:13:56;100281.84;;;28.91
19568;BMP280;9930;49.240;8.548;2022-08-27T10:39:06;100303.09;;;29.07
19568;BMP280;9930;49.240;8.548;2022-08-27T10:48:01;100312.13;;;28.99
19568;BMP280;9930;49.240;8.548;2022-08-27T10:50:44;100295.59;;;28.97
19568;BMP280;9930;49.240;8.548;2022-08-27T10:56:09;100303.22;;;29.04
19568;BMP280;9930;49.240;8.548;2022-08-27T11:01:39;100300.53;;;29.05
19568;BMP280;9930;49.240;8.548;2022-08-27T11:04:34;100303.94;;;29.07
19568;BMP280;9930;49.240;8.548;2022-08-27T11:07:04;100298.88;;;29.02
19568;BMP280;9930;49.240;8.548;2022-08-27T11:12:57;100301.56;;;29.01
19568;BMP280;9930;49.240;8.548;2022-08-27T11:15:38;100311.03;;;29.05
19568;BMP280;9930;49.240;8.548;2022-08-27T11:18:39;100309.38;;;29.02
19568;BMP280;9930;49.240;8.548;2022-08-27T11:21:15;100305.06;;;29.01
19568;BMP280;9930;49.240;8.548;2022-08-27T11:26:17;100296.63;;;28.93
19568;BMP280;9930;49.240;8.548;2022-08-27T11:28:57;100300.91;;;28.96
19568;BMP280;9930;49.240;8.548;2022-08-27T11:34:34;100314.09;;;28.94
19568;BMP280;9930;49.240;8.548;2022-08-27T11:37:45;100309.81;;;28.92
19568;BMP280;9930;49.240;8.548;2022-08-27T11:43:05;100302.84;;;28.91
19568;BMP280;9930;49.240;8.548;2022-08-27T11:45:38;100295.97;;;28.88
19568;BMP280;9930;49.240;8.548;2022-08-27T11:48:28;100305.59;;;28.88
19568;BMP280;9930;49.240;8.548;2022-08-27T11:53:35;100282.03;;;28.86
19568;BMP280;9930;49.240;8.548;2022-08-27T11:58:55;100283.56;;;28.92
19568;BMP280;9930;49.240;8.548;2022-08-27T12:04:18;100275.56;;;28.95
19568;BMP280;9930;49.240;8.548;2022-08-27T12:07:23;100286.72;;;29.00
19568;BMP280;9930;49.240;8.548;2022-08-27T12:15:37;100279.03;;;29.17
19568;BMP280;9930;49.240;8.548;2022-08-27T12:21:19;100267.47;;;29.21
19568;BMP280;9930;49.240;8.548;2022-08-27T12:30:04;100259.59;;;29.42
19568;BMP280;9930;49.240;8.548;2022-08-27T12:32:42;100256.03;;;29.44
19568;BMP280;9930;49.240;8.548;2022-08-27T12:40:39;100250.38;;;29.53
19568;BMP280;9930;49.240;8.548;2022-08-27T12:43:10;100256.94;;;29.63
19568;BMP280;9930;49.240;8.548;2022-08-27T12:48:20;100252.34;;;29.69
19568;BMP280;9930;49.240;8.548;2022-08-27T12:50:59;100246.50;;;29.62
19568;BMP280;9930;49.240;8.548;2022-08-27T12:53:44;100251.47;;;29.68
19568;BMP280;9930;49.240;8.548;2022-08-27T13:02:31;100249.50;;;29.73
19568;BMP280;9930;49.240;8.548;2022-08-27T13:05:05;100256.41;;;29.76
19568;BMP280;9930;49.240;8.548;2022-08-27T13:07:40;100243.47;;;29.71
19568;BMP280;9930;49.240;8.548;2022-08-27T13:10:28;100252.00;;;29.76
19568;BMP280;9930;49.240;8.548;2022-08-27T13:13:14;100252.84;;;29.77
19568;BMP280;9930;49.240;8.548;2022-08-27T13:15:51;100239.06;;;29.72
19568;BMP280;9930;49.240;8.548;2022-08-27T13:18:22;100250.22;;;29.77
19568;BMP280;9930;49.240;8.548;2022-08-27T13:21:03;100246.81;;;29.75
19568;BMP280;9930;49.240;8.548;2022-08-27T13:23:31;100245.25;;;29.71
19568;BMP280;9930;49.240;8.548;2022-08-27T13:26:08;100234.06;;;29.65
19568;BMP280;9930;49.240;8.548;2022-08-27T13:28:41;100246.16;;;29.70
19568;BMP280;9930;49.240;8.548;2022-08-27T13:31:09;100239.13;;;29.70
19568;BMP280;9930;49.240;8.548;2022-08-27T13:33:40;100234.84;;;29.68
19568;BMP280;9930;49.240;8.548;2022-08-27T13:36:07;100241.63;;;29.73
19568;BMP280;9930;49.240;8.548;2022-08-27T13:38:43;100236.34;;;29.73
19568;BMP280;9930;49.240;8.548;2022-08-27T13:41:23;100226.91;;;29.69
19568;BMP280;9930;49.240;8.548;2022-08-27T13:43:52;100233.88;;;29.70
19568;BMP280;9930;49.240;8.548;2022-08-27T13:46:28;100238.13;;;29.73
19568;BMP280;9930;49.240;8.548;2022-08-27T13:48:57;100234.78;;;29.69
19568;BMP280;9930;49.240;8.548;2022-08-27T13:51:33;100234.84;;;29.68
19568;BMP280;9930;49.240;8.548;2022-08-27T13:54:11;100239.25;;;29.67
19568;BMP280;9930;49.240;8.548;2022-08-27T13:59:26;100228.22;;;29.59
19568;BMP280;9930;49.240;8.548;2022-08-27T14:02:14;100228.44;;;29.54
19568;BMP280;9930;49.240;8.548;2022-08-27T14:05:08;100236.13;;;29.59
19568;BMP280;9930;49.240;8.548;2022-08-27T14:07:47;100233.47;;;29.59
19568;BMP280;9930;49.240;8.548;2022-08-27T14:13:03;100231.38;;;29.67
19568;BMP280;9930;49.240;8.548;2022-08-27T14:15:47;100233.06;;;29.68
19568;BMP280;9930;49.240;8.548;2022-08-27T14:18:34;100226.84;;;29.71
19568;BMP280;9930;49.240;8.548;2022-08-27T14:21:06;100239.63;;;29.78
19568;BMP280;9930;49.240;8.548;2022-08-27T14:23:34;100245.34;;;29.88
19568;BMP280;9930;49.240;8.548;2022-08-27T14:26:00;100228.56;;;29.90
19568;BMP280;9930;49.240;8.548;2022-08-27T14:28:29;100235.00;;;30.04
19568;BMP280;9930;49.240;8.548;2022-08-27T14:30:57;100228.75;;;30.06
19568;BMP280;9930;49.240;8.548;2022-08-27T14:33:23;100239.56;;;30.19
19568;BMP280;9930;49.240;8.548;2022-08-27T14:35:51;100239.22;;;30.26
19568;BMP280;9930;49.240;8.548;2022-08-27T14:38:23;100221.50;;;30.30
19568;BMP280;9930;49.240;8.548;2022-08-27T14:40:53;100221.72;;;30.44
19568;BMP280;9930;49.240;8.548;2022-08-27T14:43:21;100215.38;;;30.48
19568;BMP280;9930;49.240;8.548;2022-08-27T14:45:51;100215.75;;;30.59
19568;BMP280;9930;49.240;8.548;2022-08-27T14:48:25;100221.56;;;30.66
19568;BMP280;9930;49.240;8.548;2022-08-27T14:50:52;100223.19;;;30.69
19568;BMP280;9930;49.240;8.548;2022-08-27T14:53:18;100217.06;;;30.68
19568;BMP280;9930;49.240;8.548;2022-08-27T14:55:47;100212.53;;;30.72
19568;BMP280;9930;49.240;8.548;2022-08-27T14:58:16;100210.09;;;30.67
19568;BMP280;9930;49.240;8.548;2022-08-27T15:00:41;100222.13;;;30.73
19568;BMP280;9930;49.240;8.548;2022-08-27T15:03:10;100215.16;;;30.72
19568;BMP280;9930;49.240;8.548;2022-08-27T15:05:40;100216.84;;;30.73
19568;BMP280;9930;49.240;8.548;2022-08-27T15:08:06;100212.66;;;30.69
19568;BMP280;9930;49.240;8.548;2022-08-27T15:10:38;100221.19;;;30.74
19568;BMP280;9930;49.240;8.548;2022-08-27T15:13:04;100214.44;;;30.68
19568;BMP280;9930;49.240;8.548;2022-08-27T15:15:29;100219.84;;;30.65
19568;BMP280;9930;49.240;8.548;2022-08-27T15:17:57;100226.06;;;30.64
19568;BMP280;9930;49.240;8.548;2022-08-27T15:20:25;100213.22;;;30.56
19568;BMP280;9930;49.240;8.548;2022-08-27T15:22:51;100209.66;;;30.57
19568;BMP280;9930;49.240;8.548;2022-08-27T15:25:19;100214.94;;;30.57
19568;BMP280;9930;49.240;8.548;2022-08-27T15:27:48;100216.00;;;30.53
19568;BMP280;9930;49.240;8.548;2022-08-27T15:30:22;100205.13;;;30.42
19568;BMP280;9930;49.240;8.548;2022-08-27T15:32:54;100209.00;;;30.35
19568;BMP280;9930;49.240;8.548;2022-08-27T15:35:26;100217.81;;;30.34
19568;BMP280;9930;49.240;8.548;2022-08-27T15:37:58;100216.31;;;30.28
19568;BMP280;9930;49.240;8.548;2022-08-27T15:40:27;100205.16;;;30.23
19568;BMP280;9930;49.240;8.548;2022-08-27T15:43:05;100201.19;;;30.15
19568;BMP280;9930;49.240;8.548;2022-08-27T15:45:34;100202.19;;;30.12
19568;BMP280;9930;49.240;8.548;2022-08-27T15:48:03;100206.44;;;30.15
19568;BMP280;9930;49.240;8.548;2022-08-27T15:50:29;100195.28;;;30.10
19568;BMP280;9930;49.240;8.548;2022-08-27T15:53:02;100187.53;;;30.07
19568;BMP280;9930;49.240;8.548;2022-08-27T15:55:34;100200.31;;;30.14
19568;BMP280;9930;49.240;8.548;2022-08-27T15:58:01;100202.97;;;30.14
19568;BMP280;9930;49.240;8.548;2022-08-27T16:00:29;100210.00;;;30.14
19568;BMP280;9930;49.240;8.548;2022-08-27T16:02:56;100205.50;;;30.16
19568;BMP280;9930;49.240;8.548;2022-08-27T16:05:30;100205.50;;;30.16
19568;BMP280;9930;49.240;8.548;2022-08-27T16:07:59;100200.41;;;30.13
19568;BMP280;9930;49.240;8.548;2022-08-27T16:10:25;100203.66;;;30.18
19568;BMP280;9930;49.240;8.548;2022-08-27T16:12:53;100202.03;;;30.15
19568;BMP280;9930;49.240;8.548;2022-08-27T16:15:21;100211.63;;;30.16